Terminal Aerodrome Forecast
Issued by NWS

Home | Current Version | Previous Version | Text Only | Print | Product List | Glossary On
Versions: 1 2 3 4 5 6 7 8 9 10 11 12 13
000
FTAK31 PAJN 281122
TAFASI
TAF
PASI 281122Z 2812/2912 10010KT P6SM -SHRA BKN040 OVC060
     FM281400 08010KT 6SM -SHRA BKN025 OVC035
     FM282100 15012KT 6SM -SHRA BKN020 OVC035
     FM290300 12008KT P6SM VCSH BKN025 OVC040=

USA.gov is the U.S. government's official web portal to all federal, state and local government web resources and services.